Time;durP1;ratioP1;P1;durP2;ratioP2;P2;SDS_P1;SDS_P2;PMS_P1;PMS_P2;Temp;Humidity;BMP_temperature;BMP_pressure;BME280_temperature;BME280_humidity;BME280_pressure;Samples;Min_cycle;Max_cycle;Signal;HPM_P1;HPM_P2
2021/01/17 00:02:24;;;;;;;22.40;11.17;;;;;;;;;;10405164;28;20202;-70
2021/01/17 00:07:28;;;;;;;22.73;11.23;;;;;;;;;;10403634;28;20215;-69
2021/01/17 00:12:31;;;;;;;22.10;10.77;;;;;;;;;;10379650;28;20221;-71
2021/01/17 00:17:32;;;;;;;12.87;6.07;;;;;;;;;;10403497;28;20221;-72
2021/01/17 00:22:34;;;;;;;13.90;6.77;;;;;;;;;;10382199;28;20284;-70
2021/01/17 00:27:39;;;;;;;10.57;5.53;;;;;;;;;;10403428;28;20551;-70
2021/01/17 00:32:41;;;;;;;13.13;6.33;;;;;;;;;;10398216;28;20193;-71
2021/01/17 00:37:43;;;;;;;19.70;8.37;;;;;;;;;;10402596;28;20309;-70
2021/01/17 00:42:46;;;;;;;18.07;8.90;;;;;;;;;;10399178;28;20608;-71
2021/01/17 00:47:48;;;;;;;23.27;11.80;;;;;;;;;;10401015;28;20240;-71
2021/01/17 00:52:53;;;;;;;13.53;5.63;;;;;;;;;;10396450;28;20195;-70
2021/01/17 00:57:55;;;;;;;27.63;12.63;;;;;;;;;;10395695;28;20241;-71
2021/01/17 01:02:57;;;;;;;25.30;11.17;;;;;;;;;;10397668;28;20315;-71
2021/01/17 01:07:59;;;;;;;15.93;7.93;;;;;;;;;;10387158;28;20606;-72
2021/01/17 01:13:03;;;;;;;21.73;10.10;;;;;;;;;;10403169;28;20551;-69
2021/01/17 01:18:05;;;;;;;23.80;11.03;;;;;;;;;;10409726;28;20247;-70
2021/01/17 01:23:06;;;;;;;21.07;9.40;;;;;;;;;;10411434;28;20241;-73
2021/01/17 01:28:08;;;;;;;22.73;10.97;;;;;;;;;;10418439;28;20249;-71
2021/01/17 01:33:10;;;;;;;20.63;9.90;;;;;;;;;;10421193;28;20250;-72
2021/01/17 01:38:12;;;;;;;19.83;9.43;;;;;;;;;;10403603;28;20232;-72
2021/01/17 01:43:18;;;;;;;15.93;7.70;;;;;;;;;;10400412;28;20204;-70
2021/01/17 01:48:20;;;;;;;20.27;9.03;;;;;;;;;;10405797;28;20728;-70
2021/01/17 01:53:21;;;;;;;21.87;9.90;;;;;;;;;;10410735;28;20189;-71
2021/01/17 01:58:27;;;;;;;20.23;10.50;;;;;;;;;;10403231;28;20237;-72
2021/01/17 02:03:28;;;;;;;9.77;3.90;;;;;;;;;;10407556;28;20237;-71
2021/01/17 02:08:48;;;;;;;20.13;10.17;;;;;;;;;;10400786;28;20309;-71
2021/01/17 02:13:54;;;;;;;18.20;8.73;;;;;;;;;;10393527;28;20288;-69
2021/01/17 02:18:57;;;;;;;19.37;8.90;;;;;;;;;;10408068;28;20209;-70
2021/01/17 02:24:04;;;;;;;19.80;9.30;;;;;;;;;;10403073;28;20293;-69
2021/01/17 02:29:07;;;;;;;18.67;9.33;;;;;;;;;;10400984;28;20861;-71
2021/01/17 02:34:09;;;;;;;10.17;4.43;;;;;;;;;;10409247;28;20312;-70
2021/01/17 02:39:12;;;;;;;21.73;10.87;;;;;;;;;;10387860;28;20238;-71
2021/01/17 02:44:15;;;;;;;16.57;8.30;;;;;;;;;;10400704;28;20264;-70
2021/01/17 02:49:17;;;;;;;20.33;9.13;;;;;;;;;;10398399;28;20241;-71
2021/01/17 02:54:21;;;;;;;19.73;10.07;;;;;;;;;;10412231;28;20190;-70
2021/01/17 02:59:27;;;;;;;17.97;9.20;;;;;;;;;;10385287;28;20210;-70
2021/01/17 03:04:33;;;;;;;17.63;9.27;;;;;;;;;;10392200;28;20218;-70
2021/01/17 03:09:35;;;;;;;17.43;9.80;;;;;;;;;;10406743;28;20225;-70
2021/01/17 03:14:38;;;;;;;13.07;6.20;;;;;;;;;;10401942;28;20217;-70
2021/01/17 03:19:40;;;;;;;23.83;10.53;;;;;;;;;;10407151;28;20240;-70
2021/01/17 03:24:42;;;;;;;21.17;10.80;;;;;;;;;;10401209;28;20205;-69
2021/01/17 03:29:44;;;;;;;17.60;9.30;;;;;;;;;;10407304;28;20312;-70
2021/01/17 03:34:48;;;;;;;28.90;14.53;;;;;;;;;;10403101;28;20221;-71
2021/01/17 03:39:50;;;;;;;19.27;9.27;;;;;;;;;;10388130;28;20230;-70
2021/01/17 03:44:52;;;;;;;19.87;9.60;;;;;;;;;;10402145;28;20244;-70
2021/01/17 03:49:54;;;;;;;17.10;8.80;;;;;;;;;;10404731;28;20563;-69
2021/01/17 03:54:56;;;;;;;17.63;7.53;;;;;;;;;;10403888;28;20255;-70
2021/01/17 03:59:58;;;;;;;15.27;7.83;;;;;;;;;;10398880;28;20279;-70
2021/01/17 04:05:00;;;;;;;15.63;7.33;;;;;;;;;;10400950;28;20212;-71
2021/01/17 04:10:04;;;;;;;12.13;5.57;;;;;;;;;;10381418;28;20273;-70
2021/01/17 04:15:08;;;;;;;10.90;5.20;;;;;;;;;;10410359;28;20189;-70
2021/01/17 04:20:21;;;;;;;14.13;7.30;;;;;;;;;;10401079;28;20214;-71
2021/01/17 04:25:36;;;;;;;14.17;7.27;;;;;;;;;;10398285;28;20228;-72
2021/01/17 04:30:38;;;;;;;12.27;5.10;;;;;;;;;;10407942;28;20771;-70
2021/01/17 04:35:40;;;;;;;12.30;5.63;;;;;;;;;;10401183;28;20217;-70
2021/01/17 04:40:42;;;;;;;9.97;4.83;;;;;;;;;;10401719;28;20280;-70
2021/01/17 04:45:46;;;;;;;9.80;4.47;;;;;;;;;;10399122;28;20236;-69
2021/01/17 04:50:49;;;;;;;14.00;6.73;;;;;;;;;;10403740;28;20760;-70
2021/01/17 04:55:52;;;;;;;13.77;6.97;;;;;;;;;;10404022;28;20300;-70
2021/01/17 05:00:56;;;;;;;14.57;7.63;;;;;;;;;;10399608;28;21475;-69
2021/01/17 05:06:07;;;;;;;12.53;6.03;;;;;;;;;;10379461;28;20238;-70
2021/01/17 05:11:14;;;;;;;8.27;3.63;;;;;;;;;;10404170;28;20252;-70
2021/01/17 05:16:17;;;;;;;11.57;5.43;;;;;;;;;;10397261;28;20225;-68
2021/01/17 05:21:19;;;;;;;11.97;6.13;;;;;;;;;;10400143;28;20220;-69
2021/01/17 05:26:21;;;;;;;6.03;2.40;;;;;;;;;;10401888;28;20225;-69
2021/01/17 05:31:23;;;;;;;13.37;6.07;;;;;;;;;;10390135;28;20606;-70
2021/01/17 05:36:25;;;;;;;12.50;5.00;;;;;;;;;;10401792;28;20638;-70
2021/01/17 05:41:28;;;;;;;6.93;2.93;;;;;;;;;;10397980;28;20216;-71
2021/01/17 05:46:30;;;;;;;7.47;3.27;;;;;;;;;;10396152;28;20202;-70
2021/01/17 05:51:32;;;;;;;14.07;6.30;;;;;;;;;;10396844;28;20222;-69
2021/01/17 05:56:36;;;;;;;12.37;5.97;;;;;;;;;;10386687;28;20245;-70
2021/01/17 06:01:38;;;;;;;12.37;5.93;;;;;;;;;;10393722;28;20209;-70
2021/01/17 06:06:42;;;;;;;12.67;6.13;;;;;;;;;;10370110;28;20300;-71
2021/01/17 06:11:55;;;;;;;4.70;2.53;;;;;;;;;;10380414;28;20232;-70
2021/01/17 06:16:59;;;;;;;13.30;6.57;;;;;;;;;;10402838;28;20732;-71
2021/01/17 06:22:03;;;;;;;10.67;5.37;;;;;;;;;;10406713;28;20217;-70
2021/01/17 06:27:05;;;;;;;10.53;5.10;;;;;;;;;;10404648;28;20566;-70
2021/01/17 06:32:11;;;;;;;14.27;4.90;;;;;;;;;;10408743;28;20217;-70
2021/01/17 06:37:13;;;;;;;13.70;6.03;;;;;;;;;;10400669;28;20229;-70
2021/01/17 06:42:15;;;;;;;9.10;3.13;;;;;;;;;;10407267;28;20201;-69
2021/01/17 06:47:18;;;;;;;12.43;5.20;;;;;;;;;;10397741;28;20230;-70
2021/01/17 06:52:20;;;;;;;10.60;4.67;;;;;;;;;;10403252;28;20201;-70
2021/01/17 06:57:22;;;;;;;7.83;3.00;;;;;;;;;;10405287;28;20297;-71
2021/01/17 07:02:37;;;;;;;4.13;1.83;;;;;;;;;;10379940;28;20610;-71
2021/01/17 07:07:42;;;;;;;9.60;4.37;;;;;;;;;;10402577;28;20244;-72
2021/01/17 07:12:53;;;;;;;10.07;4.00;;;;;;;;;;10382154;28;20696;-71
2021/01/17 07:17:59;;;;;;;8.77;3.87;;;;;;;;;;10390621;28;20276;-71
2021/01/17 07:23:03;;;;;;;9.37;4.00;;;;;;;;;;10396509;28;20220;-72
2021/01/17 07:28:06;;;;;;;11.27;4.63;;;;;;;;;;10403712;28;20224;-71
2021/01/17 07:33:08;;;;;;;9.40;4.07;;;;;;;;;;10385059;28;20229;-71
2021/01/17 07:38:12;;;;;;;8.87;4.00;;;;;;;;;;10398818;28;20228;-71
2021/01/17 07:43:13;;;;;;;9.67;4.50;;;;;;;;;;10385668;28;20201;-70
2021/01/17 07:48:16;;;;;;;6.67;3.23;;;;;;;;;;10401102;28;20550;-70
2021/01/17 07:53:22;;;;;;;9.63;4.43;;;;;;;;;;10399865;28;20686;-70
2021/01/17 07:58:24;;;;;;;9.77;4.13;;;;;;;;;;10399918;28;20240;-71
2021/01/17 08:03:26;;;;;;;6.07;2.50;;;;;;;;;;10399215;28;20205;-72
2021/01/17 08:08:47;;;;;;;9.07;4.17;;;;;;;;;;10399879;28;20297;-72
2021/01/17 08:13:49;;;;;;;8.80;3.97;;;;;;;;;;10411859;28;20296;-72
2021/01/17 08:18:51;;;;;;;7.20;3.17;;;;;;;;;;10402440;28;20681;-70
2021/01/17 08:24:14;;;;;;;9.83;4.10;;;;;;;;;;10407840;28;20216;-71
2021/01/17 08:29:16;;;;;;;9.20;3.90;;;;;;;;;;10400279;28;20751;-71
2021/01/17 08:34:25;;;;;;;9.23;3.87;;;;;;;;;;10408654;28;20261;-71
2021/01/17 08:39:42;;;;;;;9.40;4.17;;;;;;;;;;10404999;28;20226;-71
2021/01/17 08:44:44;;;;;;;8.87;4.10;;;;;;;;;;10407510;28;20205;-68
2021/01/17 08:49:48;;;;;;;10.63;4.00;;;;;;;;;;10343935;28;20666;-72
2021/01/17 08:54:50;;;;;;;11.00;4.87;;;;;;;;;;10362309;28;20226;-71
2021/01/17 08:59:52;;;;;;;9.93;4.73;;;;;;;;;;10357355;28;20240;-70
2021/01/17 09:04:56;;;;;;;10.53;5.17;;;;;;;;;;10362506;28;20293;-70
2021/01/17 09:10:04;;;;;;;12.73;6.13;;;;;;;;;;10361503;28;20626;-71
2021/01/17 09:15:15;;;;;;;13.20;6.60;;;;;;;;;;10354134;28;20293;-71
2021/01/17 09:20:17;;;;;;;15.00;7.20;;;;;;;;;;10352740;28;20230;-71
2021/01/17 09:25:19;;;;;;;14.57;7.23;;;;;;;;;;10362725;28;20210;-70
2021/01/17 09:30:21;;;;;;;19.07;8.83;;;;;;;;;;10345406;28;20233;-70
2021/01/17 09:35:23;;;;;;;17.87;9.70;;;;;;;;;;10356267;28;20198;-70
2021/01/17 09:40:25;;;;;;;19.13;10.10;;;;;;;;;;10344872;28;20308;-71
2021/01/17 09:45:27;;;;;;;19.40;11.00;;;;;;;;;;10360868;28;20218;-71
2021/01/17 09:50:33;;;;;;;18.47;10.07;;;;;;;;;;10353126;28;20224;-72
2021/01/17 09:55:35;;;;;;;20.23;11.07;;;;;;;;;;10369080;28;20190;-71
2021/01/17 10:00:37;;;;;;;20.00;11.40;;;;;;;;;;10369428;28;20302;-72
2021/01/17 10:05:41;;;;;;;20.77;11.50;;;;;;;;;;10354148;28;20225;-71
2021/01/17 10:10:45;;;;;;;20.90;11.80;;;;;;;;;;10355038;28;20222;-71
2021/01/17 10:15:47;;;;;;;22.40;12.50;;;;;;;;;;10374886;28;20190;-70
2021/01/17 10:20:52;;;;;;;14.77;6.93;;;;;;;;;;10353049;28;20222;-72
2021/01/17 10:25:54;;;;;;;22.27;11.67;;;;;;;;;;10354136;28;20305;-70
2021/01/17 10:30:59;;;;;;;23.53;12.90;;;;;;;;;;10368491;28;20232;-69
2021/01/17 10:36:03;;;;;;;22.30;11.37;;;;;;;;;;10347641;28;20562;-68
2021/01/17 10:41:06;;;;;;;20.30;11.20;;;;;;;;;;10340900;28;20225;-68
2021/01/17 10:46:10;;;;;;;24.03;12.47;;;;;;;;;;10364355;28;20242;-69
2021/01/17 10:51:14;;;;;;;23.07;12.17;;;;;;;;;;10364597;28;20296;-71
2021/01/17 10:56:17;;;;;;;22.30;11.10;;;;;;;;;;10348483;28;20210;-70
2021/01/17 11:01:29;;;;;;;24.80;12.47;;;;;;;;;;10374741;28;20210;-69
2021/01/17 11:06:32;;;;;;;23.23;12.40;;;;;;;;;;10382823;28;20297;-68
2021/01/17 11:11:54;;;;;;;23.83;12.40;;;;;;;;;;10390391;28;20273;-71
2021/01/17 11:16:56;;;;;;;22.10;12.20;;;;;;;;;;10367790;28;20192;-71
2021/01/17 11:22:04;;;;;;;22.57;12.83;;;;;;;;;;10373082;28;20214;-70
2021/01/17 11:27:09;;;;;;;22.20;11.97;;;;;;;;;;10362514;28;20242;-72
2021/01/17 11:32:11;;;;;;;23.00;12.03;;;;;;;;;;10380376;28;20238;-72
2021/01/17 11:37:14;;;;;;;22.30;12.63;;;;;;;;;;10386648;28;20226;-73
2021/01/17 11:42:18;;;;;;;24.77;13.37;;;;;;;;;;10386558;28;20278;-71
2021/01/17 11:47:20;;;;;;;22.47;12.73;;;;;;;;;;10377721;28;20290;-72
2021/01/17 11:52:23;;;;;;;23.13;12.90;;;;;;;;;;10355796;28;20190;-71
2021/01/17 11:57:27;;;;;;;21.17;11.60;;;;;;;;;;10355594;28;20284;-72
2021/01/17 12:02:37;;;;;;;20.57;11.67;;;;;;;;;;10367256;28;20216;-72
2021/01/17 12:07:54;;;;;;;22.83;12.40;;;;;;;;;;10362128;28;20250;-72
2021/01/17 12:12:57;;;;;;;20.20;11.67;;;;;;;;;;10365976;28;20267;-71
2021/01/17 12:17:58;;;;;;;19.93;10.97;;;;;;;;;;10367446;28;20199;-72
2021/01/17 12:23:00;;;;;;;20.13;10.17;;;;;;;;;;10377457;28;20617;-71
2021/01/17 12:28:05;;;;;;;22.47;11.00;;;;;;;;;;10350814;28;20218;-71
2021/01/17 12:33:07;;;;;;;20.53;11.80;;;;;;;;;;10340806;28;20222;-72
2021/01/17 12:38:08;;;;;;;21.60;11.97;;;;;;;;;;10368874;28;20667;-72
2021/01/17 12:43:11;;;;;;;23.43;13.50;;;;;;;;;;10347459;28;20256;-70
2021/01/17 12:48:13;;;;;;;22.77;12.43;;;;;;;;;;10349882;28;20297;-70
2021/01/17 12:53:14;;;;;;;22.30;12.40;;;;;;;;;;10361582;28;20190;-72
2021/01/17 12:58:17;;;;;;;22.57;11.20;;;;;;;;;;10365348;28;20217;-72
2021/01/17 13:03:19;;;;;;;22.40;12.40;;;;;;;;;;10368160;28;20194;-72
2021/01/17 13:08:21;;;;;;;21.10;11.97;;;;;;;;;;10368885;28;20277;-72
2021/01/17 13:13:23;;;;;;;20.37;11.27;;;;;;;;;;10375100;28;20249;-73
2021/01/17 13:18:25;;;;;;;21.47;11.57;;;;;;;;;;10371228;28;20309;-71
2021/01/17 13:23:27;;;;;;;21.33;11.83;;;;;;;;;;10367195;28;20226;-73
2021/01/17 13:28:30;;;;;;;21.67;12.23;;;;;;;;;;10364643;28;20340;-72
2021/01/17 13:33:31;;;;;;;20.90;11.40;;;;;;;;;;10372804;28;20209;-72
2021/01/17 13:38:34;;;;;;;21.10;10.87;;;;;;;;;;10360632;28;20293;-72
2021/01/17 13:43:37;;;;;;;24.27;12.87;;;;;;;;;;10362073;28;20198;-73
2021/01/17 13:48:39;;;;;;;20.33;10.80;;;;;;;;;;10341284;28;20214;-74
2021/01/17 13:53:42;;;;;;;20.87;11.93;;;;;;;;;;10337746;28;20198;-73
2021/01/17 13:58:45;;;;;;;21.10;10.97;;;;;;;;;;10353217;28;20257;-71
2021/01/17 14:03:47;;;;;;;20.93;10.87;;;;;;;;;;10359216;28;20289;-72
2021/01/17 14:08:48;;;;;;;22.50;11.73;;;;;;;;;;10362746;28;20245;-72
2021/01/17 14:13:51;;;;;;;22.57;11.67;;;;;;;;;;10353369;28;20554;-72
2021/01/17 14:18:53;;;;;;;20.33;10.53;;;;;;;;;;10356080;28;20667;-71
2021/01/17 14:23:54;;;;;;;21.60;10.63;;;;;;;;;;10356202;28;20233;-73
2021/01/17 14:28:57;;;;;;;17.73;9.33;;;;;;;;;;10353714;28;20244;-72
2021/01/17 14:33:59;;;;;;;18.77;9.33;;;;;;;;;;10365596;28;20296;-73
2021/01/17 14:39:05;;;;;;;20.47;9.93;;;;;;;;;;10365267;28;20707;-73
2021/01/17 14:44:08;;;;;;;19.07;11.03;;;;;;;;;;10353521;28;20190;-73
2021/01/17 14:49:11;;;;;;;15.90;8.23;;;;;;;;;;10363263;28;20315;-72
2021/01/17 14:54:13;;;;;;;16.77;7.80;;;;;;;;;;10367710;28;20202;-72
2021/01/17 14:59:16;;;;;;;17.07;8.47;;;;;;;;;;10364531;28;20264;-72
2021/01/17 15:04:18;;;;;;;15.63;7.90;;;;;;;;;;10362371;28;20199;-71
2021/01/17 15:09:20;;;;;;;15.90;7.70;;;;;;;;;;10365984;28;20218;-71
2021/01/17 15:14:23;;;;;;;13.87;6.90;;;;;;;;;;10368494;28;20202;-72
2021/01/17 15:19:27;;;;;;;13.93;6.87;;;;;;;;;;10374238;28;20306;-70
2021/01/17 15:24:31;;;;;;;15.40;7.43;;;;;;;;;;10366331;28;20289;-72
2021/01/17 15:29:34;;;;;;;13.53;6.70;;;;;;;;;;10372096;28;20284;-71
2021/01/17 15:34:36;;;;;;;15.67;7.43;;;;;;;;;;10380638;28;20258;-71
2021/01/17 15:39:38;;;;;;;15.43;7.10;;;;;;;;;;10379268;28;20226;-72
2021/01/17 15:44:41;;;;;;;14.67;7.30;;;;;;;;;;10359791;28;20671;-72
2021/01/17 15:49:44;;;;;;;13.37;7.40;;;;;;;;;;10374757;28;20530;-72
2021/01/17 15:54:46;;;;;;;14.60;6.97;;;;;;;;;;10373039;28;20194;-71
2021/01/17 15:59:48;;;;;;;11.87;6.00;;;;;;;;;;10368217;28;20222;-72
2021/01/17 16:04:50;;;;;;;11.17;6.03;;;;;;;;;;10367195;28;20215;-72
2021/01/17 16:09:53;;;;;;;11.23;5.40;;;;;;;;;;10364749;28;20225;-71
2021/01/17 16:14:55;;;;;;;12.63;6.10;;;;;;;;;;10358721;28;20613;-71
2021/01/17 16:19:56;;;;;;;14.63;6.50;;;;;;;;;;10366951;28;20314;-71
2021/01/17 16:24:58;;;;;;;13.77;6.43;;;;;;;;;;10368499;28;20340;-71
2021/01/17 16:30:04;;;;;;;14.07;7.30;;;;;;;;;;10364895;28;20230;-72
2021/01/17 16:35:20;;;;;;;12.80;6.67;;;;;;;;;;10362527;28;20281;-71
2021/01/17 16:40:22;;;;;;;13.90;7.47;;;;;;;;;;10361523;28;20306;-71
2021/01/17 16:45:25;;;;;;;14.60;7.70;;;;;;;;;;10342613;28;20256;-72
2021/01/17 16:50:27;;;;;;;15.00;7.47;;;;;;;;;;10362061;28;20265;-71
2021/01/17 16:55:28;;;;;;;17.57;8.03;;;;;;;;;;10364283;28;20198;-71
2021/01/17 17:00:31;;;;;;;17.63;9.27;;;;;;;;;;10337996;28;20214;-72
2021/01/17 17:05:33;;;;;;;15.17;7.97;;;;;;;;;;10375718;28;20237;-71
2021/01/17 17:10:35;;;;;;;17.70;8.27;;;;;;;;;;10342029;28;20222;-72
2021/01/17 17:15:38;;;;;;;17.07;8.50;;;;;;;;;;10360349;28;20193;-71
2021/01/17 17:20:40;;;;;;;15.00;8.23;;;;;;;;;;10360830;28;20268;-71
2021/01/17 17:25:42;;;;;;;18.33;9.27;;;;;;;;;;10346457;28;20229;-71
2021/01/17 17:30:44;;;;;;;18.93;9.23;;;;;;;;;;10363349;28;20256;-72
2021/01/17 17:35:46;;;;;;;18.40;9.93;;;;;;;;;;10366299;28;20215;-71
2021/01/17 17:40:48;;;;;;;19.67;10.17;;;;;;;;;;10354623;28;20269;-73
2021/01/17 17:45:50;;;;;;;20.73;10.57;;;;;;;;;;10368814;28;20290;-71
2021/01/17 17:50:53;;;;;;;19.73;10.73;;;;;;;;;;10345536;28;20256;-72
2021/01/17 17:55:56;;;;;;;19.20;10.87;;;;;;;;;;10361247;28;20686;-73
2021/01/17 18:00:59;;;;;;;19.70;10.83;;;;;;;;;;10370225;28;20222;-71
2021/01/17 18:06:04;;;;;;;21.90;11.70;;;;;;;;;;10348621;28;20230;-71
2021/01/17 18:11:06;;;;;;;24.13;11.67;;;;;;;;;;10369564;28;20222;-70
2021/01/17 18:16:09;;;;;;;21.43;11.97;;;;;;;;;;10369739;28;20183;-72
2021/01/17 18:21:11;;;;;;;21.77;12.07;;;;;;;;;;10368236;28;20225;-71
2021/01/17 18:26:12;;;;;;;19.77;11.77;;;;;;;;;;10357220;28;20247;-70
2021/01/17 18:31:15;;;;;;;23.93;13.37;;;;;;;;;;10357126;28;20223;-71
2021/01/17 18:36:16;;;;;;;22.93;11.57;;;;;;;;;;10368962;28;20214;-72
2021/01/17 18:41:18;;;;;;;20.87;11.80;;;;;;;;;;10363493;28;20226;-72
2021/01/17 18:46:25;;;;;;;21.63;12.90;;;;;;;;;;10380763;28;20261;-72
2021/01/17 18:51:27;;;;;;;21.83;12.03;;;;;;;;;;10372893;28;20292;-72
2021/01/17 18:56:29;;;;;;;22.53;12.73;;;;;;;;;;10376072;28;20222;-72
2021/01/17 19:01:37;;;;;;;23.73;12.80;;;;;;;;;;10378923;28;20222;-71
2021/01/17 19:06:39;;;;;;;22.40;12.50;;;;;;;;;;10348243;28;20602;-71
2021/01/17 19:11:41;;;;;;;25.43;12.30;;;;;;;;;;10363751;28;20257;-72
2021/01/17 19:16:43;;;;;;;24.73;14.20;;;;;;;;;;10349308;28;20281;-71
2021/01/17 19:21:47;;;;;;;22.80;12.37;;;;;;;;;;10370443;28;20742;-73
2021/01/17 19:26:51;;;;;;;22.67;12.50;;;;;;;;;;10371585;28;20214;-71
2021/01/17 19:31:53;;;;;;;24.90;12.97;;;;;;;;;;10364962;28;20607;-71
2021/01/17 19:36:56;;;;;;;23.57;12.30;;;;;;;;;;10365071;28;20198;-71
2021/01/17 19:41:58;;;;;;;21.50;11.07;;;;;;;;;;10347650;28;20231;-72
2021/01/17 19:47:04;;;;;;;21.27;10.77;;;;;;;;;;10366245;28;20265;-72
2021/01/17 19:52:06;;;;;;;21.87;11.57;;;;;;;;;;10368154;28;20240;-71
2021/01/17 19:57:08;;;;;;;22.67;11.33;;;;;;;;;;10359234;28;20332;-72
2021/01/17 20:02:10;;;;;;;22.93;12.30;;;;;;;;;;10361147;28;20221;-71
2021/01/17 20:07:16;;;;;;;21.53;11.70;;;;;;;;;;10363373;28;20237;-70
2021/01/17 20:12:18;;;;;;;19.47;10.03;;;;;;;;;;10343573;28;20252;-72
2021/01/17 20:17:21;;;;;;;20.50;9.93;;;;;;;;;;10361196;28;20199;-72
2021/01/17 20:22:23;;;;;;;20.90;10.60;;;;;;;;;;10363456;28;20237;-71
2021/01/17 20:27:25;;;;;;;20.10;10.30;;;;;;;;;;10365786;28;20211;-73
2021/01/17 20:32:28;;;;;;;19.07;9.37;;;;;;;;;;10345028;28;20241;-71
2021/01/17 20:37:30;;;;;;;19.37;10.17;;;;;;;;;;10361507;28;20195;-73
2021/01/17 20:42:31;;;;;;;18.67;9.07;;;;;;;;;;10363158;28;20540;-73
2021/01/17 20:47:34;;;;;;;16.80;8.73;;;;;;;;;;10357578;28;20280;-72
2021/01/17 20:52:37;;;;;;;16.47;8.63;;;;;;;;;;10355034;28;20247;-72
2021/01/17 20:57:38;;;;;;;19.30;10.33;;;;;;;;;;10353698;28;20572;-70
2021/01/17 21:02:41;;;;;;;18.37;10.60;;;;;;;;;;10339412;28;20280;-73
2021/01/17 21:07:43;;;;;;;20.67;11.40;;;;;;;;;;10342965;28;20323;-72
2021/01/17 21:12:44;;;;;;;20.43;11.03;;;;;;;;;;10337300;28;20706;-71
2021/01/17 21:17:47;;;;;;;19.00;10.83;;;;;;;;;;10342820;28;20292;-71
2021/01/17 21:23:05;;;;;;;19.70;10.43;;;;;;;;;;10357317;28;20688;-71
2021/01/17 21:28:07;;;;;;;19.80;10.93;;;;;;;;;;10363393;28;20293;-70
2021/01/17 21:33:09;;;;;;;19.93;11.33;;;;;;;;;;10364620;28;20206;-69
2021/01/17 21:38:11;;;;;;;20.47;10.93;;;;;;;;;;10351203;28;20240;-70
2021/01/17 21:43:13;;;;;;;21.07;11.30;;;;;;;;;;10363453;28;20237;-73
2021/01/17 21:48:16;;;;;;;19.17;10.67;;;;;;;;;;10353029;28;22356;-72
2021/01/17 21:53:17;;;;;;;20.70;11.53;;;;;;;;;;10367030;28;20257;-71
2021/01/17 21:58:19;;;;;;;18.83;10.90;;;;;;;;;;10366475;28;20277;-72
2021/01/17 22:03:22;;;;;;;17.90;9.60;;;;;;;;;;10370673;28;20190;-71
2021/01/17 22:08:23;;;;;;;20.10;9.57;;;;;;;;;;10371633;28;20384;-70
2021/01/17 22:13:25;;;;;;;17.07;9.20;;;;;;;;;;10367393;28;20634;-71
2021/01/17 22:18:29;;;;;;;18.87;10.23;;;;;;;;;;10364704;28;20218;-71
2021/01/17 22:23:33;;;;;;;16.80;10.20;;;;;;;;;;10364677;28;20301;-70
2021/01/17 22:28:34;;;;;;;17.10;9.57;;;;;;;;;;10369172;28;20226;-70
2021/01/17 22:33:37;;;;;;;17.10;10.00;;;;;;;;;;10350819;28;20258;-70
2021/01/17 22:38:39;;;;;;;17.80;10.17;;;;;;;;;;10363842;28;20226;-70
2021/01/17 22:43:40;;;;;;;19.03;10.27;;;;;;;;;;10366802;28;20194;-68
2021/01/17 22:48:43;;;;;;;17.67;10.23;;;;;;;;;;10361305;28;20284;-69
2021/01/17 22:53:44;;;;;;;18.30;10.37;;;;;;;;;;10365084;28;20254;-69
2021/01/17 22:58:46;;;;;;;18.10;10.47;;;;;;;;;;10361235;28;20215;-70
2021/01/17 23:03:49;;;;;;;15.30;8.30;;;;;;;;;;10365121;28;20189;-70
2021/01/17 23:08:51;;;;;;;17.53;8.60;;;;;;;;;;10364704;28;20253;-71
2021/01/17 23:13:53;;;;;;;15.70;9.07;;;;;;;;;;10364889;28;20242;-70
2021/01/17 23:18:57;;;;;;;15.60;8.13;;;;;;;;;;10365599;28;20634;-69
2021/01/17 23:23:59;;;;;;;15.70;9.47;;;;;;;;;;10364702;28;20202;-70
2021/01/17 23:29:03;;;;;;;15.30;8.37;;;;;;;;;;10357259;28;20268;-69
2021/01/17 23:34:06;;;;;;;13.73;7.90;;;;;;;;;;10346099;28;20202;-68
2021/01/17 23:39:08;;;;;;;13.53;8.00;;;;;;;;;;10269346;28;2854697;-69
2021/01/17 23:44:10;;;;;;;14.87;8.47;;;;;;;;;;10360171;28;20278;-70
2021/01/17 23:49:13;;;;;;;15.33;8.80;;;;;;;;;;10346774;28;20237;-68
2021/01/17 23:54:14;;;;;;;12.10;7.20;;;;;;;;;;10366400;28;20543;-71
2021/01/17 23:59:16;;;;;;;14.57;8.57;;;;;;;;;;10346569;28;20276;-72
